Time;durP1;ratioP1;P1;durP2;ratioP2;P2;SDS_P1;SDS_P2;PMS_P1;PMS_P2;Temp;Humidity;BMP_temperature;BMP_pressure;BME280_temperature;BME280_humidity;BME280_pressure;Samples;Min_cycle;Max_cycle;Signal;HPM_P1;HPM_P2
2022/03/23 00:01:22;;;;;;;26.43;16.77;;;4.30;99.90;;;;;;5029416;28;20467;-71
2022/03/23 00:04:08;;;;;;;27.13;16.60;;;4.30;99.90;;;;;;5030101;28;20469;-71
2022/03/23 00:06:54;;;;;;;26.07;17.17;;;4.40;99.90;;;;;;5030770;28;20484;-71
2022/03/23 00:09:41;;;;;;;20.57;15.53;;;4.60;99.90;;;;;;5035680;28;20591;-72
2022/03/23 00:12:27;;;;;;;21.70;16.37;;;4.70;99.90;;;;;;5028094;28;20468;-71
2022/03/23 00:15:13;;;;;;;23.60;17.23;;;4.70;99.90;;;;;;5035785;28;20477;-71
2022/03/23 00:17:59;;;;;;;21.10;16.07;;;4.60;99.90;;;;;;5029520;28;20444;-71
2022/03/23 00:20:44;;;;;;;20.43;15.87;;;4.50;99.90;;;;;;5032839;28;20439;-70
2022/03/23 00:23:30;;;;;;;23.57;16.40;;;4.30;99.90;;;;;;5029109;28;20803;-71
2022/03/23 00:26:17;;;;;;;23.00;16.87;;;4.10;99.90;;;;;;5032140;28;20503;-71
2022/03/23 00:29:05;;;;;;;22.93;16.27;;;4.10;99.90;;;;;;5032444;28;20531;-71
2022/03/23 00:31:50;;;;;;;23.77;17.00;;;4.10;99.90;;;;;;5030057;28;20572;-71
2022/03/23 00:34:36;;;;;;;22.30;17.10;;;4.30;99.90;;;;;;5029582;28;20416;-71
2022/03/23 00:37:22;;;;;;;21.50;15.80;;;4.40;99.90;;;;;;5031505;28;20466;-71
2022/03/23 00:40:09;;;;;;;22.47;16.23;;;4.30;99.90;;;;;;5033720;28;20478;-71
2022/03/23 00:42:59;;;;;;;26.07;17.00;;;4.20;99.90;;;;;;5023921;28;20446;-72
2022/03/23 00:45:45;;;;;;;20.93;16.07;;;4.00;99.90;;;;;;5030039;28;20554;-72
2022/03/23 00:48:30;;;;;;;21.23;14.82;;;3.90;99.90;;;;;;5037674;28;20532;-72
2022/03/23 00:51:16;;;;;;;17.57;14.00;;;3.90;99.90;;;;;;5026275;28;20784;-71
2022/03/23 00:54:02;;;;;;;19.50;14.77;;;3.80;99.90;;;;;;5028192;28;20579;-71
2022/03/23 00:56:50;;;;;;;25.70;16.25;;;3.80;99.90;;;;;;5028545;28;20608;-71
2022/03/23 00:59:37;;;;;;;23.35;15.05;;;4.00;99.90;;;;;;5028101;28;20671;-71
2022/03/23 01:02:23;;;;;;;21.63;15.47;;;4.10;99.90;;;;;;5023878;28;20209;-72
2022/03/23 01:05:09;;;;;;;21.60;15.40;;;4.20;99.90;;;;;;5029375;28;20451;-71
2022/03/23 01:07:55;;;;;;;23.45;15.65;;;3.90;99.90;;;;;;5022139;28;20432;-71
2022/03/23 01:10:42;;;;;;;25.37;15.73;;;3.80;99.90;;;;;;5027832;28;20192;-72
2022/03/23 01:13:27;;;;;;;23.70;14.83;;;3.70;99.90;;;;;;5027968;28;20802;-71
2022/03/23 01:16:16;;;;;;;22.53;14.40;;;3.70;99.90;;;;;;5029251;28;20557;-71
2022/03/23 01:19:02;;;;;;;20.53;16.03;;;3.60;99.90;;;;;;5026278;28;20444;-71
2022/03/23 01:21:47;;;;;;;23.43;15.50;;;3.70;99.90;;;;;;5028753;28;20494;-71
2022/03/23 01:24:33;;;;;;;23.43;15.87;;;3.80;99.90;;;;;;5026850;28;20447;-71
2022/03/23 01:27:19;;;;;;;22.55;15.40;;;3.90;99.90;;;;;;5031934;28;20576;-70
2022/03/23 01:30:07;;;;;;;20.07;13.93;;;3.70;99.90;;;;;;5033529;28;20213;-71
2022/03/23 01:32:54;;;;;;;21.33;15.33;;;3.60;99.90;;;;;;5038024;28;20436;-71
2022/03/23 01:35:39;;;;;;;24.00;15.23;;;3.40;99.90;;;;;;5031259;28;20526;-71
2022/03/23 01:38:25;;;;;;;18.60;13.57;;;3.40;99.90;;;;;;5031938;28;20459;-71
2022/03/23 01:41:11;;;;;;;17.90;14.00;;;3.50;99.90;;;;;;5026809;28;21063;-71
2022/03/23 01:43:57;;;;;;;16.97;14.07;;;3.60;99.90;;;;;;5033168;28;20456;-70
2022/03/23 01:47:01;;;;;;;16.73;13.00;;;3.70;99.90;;;;;;5026975;28;21008;-71
2022/03/23 01:49:52;;;;;;;19.60;14.20;;;3.80;99.90;;;;;;5029550;28;20468;-72
2022/03/23 01:52:39;;;;;;;17.27;14.20;;;3.60;99.90;;;;;;5027891;28;20943;-71
2022/03/23 01:55:25;;;;;;;19.10;13.80;;;3.40;99.90;;;;;;5028138;28;20553;-72
2022/03/23 01:58:11;;;;;;;20.47;15.00;;;3.30;99.90;;;;;;5029953;28;20440;-71
2022/03/23 02:00:57;;;;;;;17.53;13.37;;;3.20;99.90;;;;;;5027652;28;20487;-71
2022/03/23 02:03:42;;;;;;;23.77;15.10;;;3.20;99.90;;;;;;5036277;28;20432;-71
2022/03/23 02:06:29;;;;;;;17.87;13.90;;;3.10;99.90;;;;;;5026677;28;20473;-71
2022/03/23 02:09:15;;;;;;;19.33;14.13;;;3.10;99.90;;;;;;5034194;28;20513;-72
2022/03/23 02:12:03;;;;;;;22.60;14.10;;;3.00;99.90;;;;;;5021779;28;20950;-71
2022/03/23 02:14:49;;;;;;;19.97;14.13;;;3.10;99.90;;;;;;5027093;28;20784;-71
2022/03/23 02:17:35;;;;;;;21.25;13.70;;;3.20;99.90;;;;;;5030636;28;20444;-71
2022/03/23 02:20:22;;;;;;;17.13;14.18;;;3.20;99.90;;;;;;5030694;28;20201;-71
2022/03/23 02:23:09;;;;;;;16.73;12.90;;;3.20;99.90;;;;;;5031574;28;20204;-72
2022/03/23 02:26:00;;;;;;;19.20;13.97;;;3.10;99.90;;;;;;5027184;28;20700;-71
2022/03/23 02:28:46;;;;;;;18.97;12.87;;;3.10;99.90;;;;;;5030606;28;20479;-71
2022/03/23 02:31:33;;;;;;;21.85;14.25;;;3.10;99.90;;;;;;5024818;28;20532;-71
2022/03/23 02:34:19;;;;;;;25.10;12.65;;;3.10;99.90;;;;;;5036864;28;20294;-71
2022/03/23 02:37:05;;;;;;;21.40;14.50;;;3.00;99.90;;;;;;5036417;28;20222;-71
2022/03/23 02:39:52;;;;;;;17.40;12.95;;;2.90;99.90;;;;;;5036089;28;20193;-70
2022/03/23 02:42:39;;;;;;;18.03;13.40;;;2.90;99.90;;;;;;5034572;28;20228;-72
2022/03/23 02:45:25;;;;;;;15.40;11.67;;;2.90;99.90;;;;;;5040828;28;20991;-71
2022/03/23 02:48:10;;;;;;;19.67;12.35;;;2.90;99.90;;;;;;5039065;28;20450;-72
2022/03/23 02:50:56;;;;;;;20.70;13.23;;;3.10;99.90;;;;;;5032971;28;20220;-70
2022/03/23 03:03:08;;;;;;;20.07;14.13;;;2.90;99.90;;;;;;5033093;28;20474;-72
2022/03/23 03:05:54;;;;;;;20.97;13.57;;;2.90;99.90;;;;;;5028285;28;20460;-71
2022/03/23 03:08:48;;;;;;;17.60;13.77;;;2.90;99.90;;;;;;5033991;28;20546;-71
2022/03/23 03:11:34;;;;;;;22.63;14.00;;;2.80;99.90;;;;;;5031200;28;20556;-71
2022/03/23 03:14:21;;;;;;;21.27;13.98;;;2.80;99.90;;;;;;5036118;28;20439;-71
2022/03/23 03:17:07;;;;;;;21.95;13.77;;;2.70;99.90;;;;;;5034928;28;20310;-72
2022/03/23 03:19:54;;;;;;;21.77;15.27;;;2.70;99.90;;;;;;5022387;28;20381;-71
2022/03/23 03:22:40;;;;;;;20.42;14.68;;;2.60;99.90;;;;;;5033967;28;20435;-71
2022/03/23 03:25:26;;;;;;;17.10;13.63;;;2.50;99.90;;;;;;5031527;28;20226;-71
2022/03/23 03:28:11;;;;;;;25.52;16.10;;;2.50;99.90;;;;;;5034134;28;20205;-71
2022/03/23 03:30:58;;;;;;;18.88;14.40;;;2.50;99.90;;;;;;5031228;28;20692;-70
2022/03/23 03:33:45;;;;;;;18.98;13.93;;;2.60;99.90;;;;;;5036263;28;20195;-72
2022/03/23 03:36:31;;;;;;;20.30;15.67;;;2.90;99.90;;;;;;5029263;28;20573;-71
2022/03/23 03:39:16;;;;;;;19.43;14.00;;;3.00;99.90;;;;;;5031483;28;20961;-71
2022/03/23 03:42:02;;;;;;;20.23;13.07;;;3.20;99.90;;;;;;5030958;28;20429;-71
2022/03/23 03:44:50;;;;;;;18.63;13.82;;;3.20;99.90;;;;;;5029888;28;20810;-71
2022/03/23 03:47:38;;;;;;;18.08;15.20;;;3.00;99.90;;;;;;5031494;28;20321;-71
2022/03/23 03:50:24;;;;;;;19.55;13.40;;;2.80;99.90;;;;;;5028381;28;20236;-70
2022/03/23 03:53:10;;;;;;;21.48;14.38;;;2.70;99.90;;;;;;5031767;28;20204;-71
2022/03/23 03:55:55;;;;;;;19.70;14.30;;;2.60;99.90;;;;;;5028605;28;20237;-71
2022/03/23 03:58:41;;;;;;;22.90;15.50;;;2.50;99.90;;;;;;5030771;28;20555;-72
2022/03/23 04:01:27;;;;;;;19.13;13.75;;;2.40;99.90;;;;;;5028431;28;20562;-71
2022/03/23 04:04:14;;;;;;;21.08;14.80;;;2.40;99.90;;;;;;5031727;28;20316;-71
2022/03/23 04:07:00;;;;;;;22.52;13.50;;;2.40;99.90;;;;;;5029976;28;20275;-70
2022/03/23 04:09:45;;;;;;;23.63;13.40;;;2.60;99.90;;;;;;5029081;28;20252;-71
2022/03/23 04:12:30;;;;;;;19.00;14.05;;;2.60;99.90;;;;;;5032306;28;20203;-71
2022/03/23 04:15:16;;;;;;;19.35;15.02;;;2.60;99.90;;;;;;5032202;28;20256;-71
2022/03/23 04:18:02;;;;;;;22.75;15.20;;;2.50;99.90;;;;;;5033490;28;20204;-71
2022/03/23 04:20:49;;;;;;;24.27;15.07;;;2.40;99.90;;;;;;5021797;28;20214;-71
2022/03/23 04:23:35;;;;;;;18.65;14.57;;;2.30;99.90;;;;;;5031333;28;20198;-71
2022/03/23 04:26:21;;;;;;;21.67;15.02;;;2.30;99.90;;;;;;5034855;28;20243;-71
2022/03/23 04:29:07;;;;;;;21.00;15.02;;;2.20;99.90;;;;;;5030322;28;20682;-70
2022/03/23 04:31:52;;;;;;;21.13;15.32;;;2.20;99.90;;;;;;5030690;28;20205;-71
2022/03/23 04:34:38;;;;;;;21.50;15.18;;;2.20;99.90;;;;;;5027888;28;20208;-71
2022/03/23 04:37:25;;;;;;;20.58;15.55;;;2.20;99.90;;;;;;5031036;28;20232;-72
2022/03/23 04:40:14;;;;;;;22.98;15.02;;;2.10;99.90;;;;;;5037205;28;20198;-71
2022/03/23 04:43:00;;;;;;;22.75;14.93;;;2.10;99.90;;;;;;5029067;28;20202;-72
2022/03/23 04:45:46;;;;;;;23.73;14.65;;;2.10;99.90;;;;;;5030753;28;20221;-71
2022/03/23 04:48:31;;;;;;;24.30;15.27;;;2.10;99.90;;;;;;5042735;28;20207;-71
2022/03/23 04:51:17;;;;;;;19.37;14.00;;;2.10;99.90;;;;;;5026920;28;20221;-71
2022/03/23 04:54:05;;;;;;;20.90;15.10;;;2.00;99.90;;;;;;5035891;28;20584;-70
2022/03/23 04:56:50;;;;;;;19.35;14.57;;;2.00;99.90;;;;;;5029391;28;20614;-71
2022/03/23 04:59:35;;;;;;;17.67;13.00;;;2.00;99.90;;;;;;5027035;28;20208;-70
2022/03/23 05:02:21;;;;;;;21.17;14.10;;;2.00;99.90;;;;;;5034228;28;20434;-70
2022/03/23 05:05:08;;;;;;;19.10;15.40;;;2.00;99.90;;;;;;5025460;28;20448;-71
2022/03/23 05:07:54;;;;;;;21.80;14.17;;;2.00;99.90;;;;;;5033859;28;20587;-70
2022/03/23 05:10:41;;;;;;;19.33;14.20;;;2.10;99.90;;;;;;5023172;28;20461;-71
2022/03/23 05:13:27;;;;;;;18.63;13.85;;;2.10;99.90;;;;;;5026626;28;20428;-71
2022/03/23 05:16:14;;;;;;;20.63;13.10;;;2.10;99.90;;;;;;5036658;28;20278;-71
2022/03/23 05:18:59;;;;;;;20.42;15.10;;;2.00;99.90;;;;;;5030980;28;20462;-71
2022/03/23 05:21:45;;;;;;;18.40;13.83;;;2.00;99.90;;;;;;5031922;28;20268;-70
2022/03/23 05:24:30;;;;;;;16.65;12.75;;;2.00;99.90;;;;;;5032647;28;20446;-71
2022/03/23 05:27:17;;;;;;;23.52;13.35;;;2.00;99.90;;;;;;5030717;28;20298;-72
2022/03/23 05:30:04;;;;;;;16.70;12.20;;;2.00;99.90;;;;;;5027225;28;20217;-71
2022/03/23 05:32:50;;;;;;;21.03;12.90;;;2.00;99.90;;;;;;5037050;28;20436;-72
2022/03/23 05:35:36;;;;;;;20.15;14.43;;;2.30;99.90;;;;;;5031329;28;20952;-72
2022/03/23 05:38:22;;;;;;;35.30;12.70;;;2.40;99.90;;;;;;5032613;28;20189;-71
2022/03/23 05:41:07;;;;;;;17.20;11.63;;;2.50;99.90;;;;;;5028945;28;20420;-71
2022/03/23 05:43:55;;;;;;;22.25;11.65;;;2.40;99.90;;;;;;5031077;28;20725;-71
2022/03/23 05:46:41;;;;;;;14.73;11.50;;;2.40;99.90;;;;;;5037165;28;20224;-71
2022/03/23 05:49:26;;;;;;;18.00;12.60;;;2.30;99.90;;;;;;5028056;28;20197;-71
2022/03/23 05:52:12;;;;;;;22.03;12.80;;;2.20;99.90;;;;;;5031148;28;20959;-71
2022/03/23 05:54:58;;;;;;;15.73;12.05;;;2.30;99.90;;;;;;5027467;28;20627;-72
2022/03/23 05:57:43;;;;;;;16.97;11.37;;;2.40;99.90;;;;;;5028842;28;20203;-71
2022/03/23 06:00:31;;;;;;;24.23;11.70;;;2.60;99.90;;;;;;5027677;28;20495;-71
2022/03/23 06:03:16;;;;;;;16.53;11.73;;;2.70;99.90;;;;;;5029940;28;20451;-71
2022/03/23 06:06:03;;;;;;;24.13;11.83;;;2.80;99.90;;;;;;5031361;28;20468;-71
2022/03/23 06:08:48;;;;;;;17.48;12.65;;;2.90;99.90;;;;;;5030566;28;20464;-71
2022/03/23 06:11:34;;;;;;;15.60;12.55;;;3.10;99.90;;;;;;5031803;28;20215;-72
2022/03/23 06:14:20;;;;;;;15.73;12.20;;;3.40;99.90;;;;;;5030717;28;20205;-71
2022/03/23 06:17:07;;;;;;;21.70;12.60;;;3.50;99.90;;;;;;5030454;28;20466;-71
2022/03/23 06:19:52;;;;;;;18.03;13.07;;;3.60;99.90;;;;;;5028539;28;20475;-71
2022/03/23 06:22:38;;;;;;;19.40;12.10;;;3.70;99.90;;;;;;5030482;28;20818;-71
2022/03/23 06:25:24;;;;;;;15.77;11.90;;;3.80;99.90;;;;;;5029267;28;21205;-71
2022/03/23 06:28:10;;;;;;;18.03;11.43;;;3.80;99.90;;;;;;5030378;28;20456;-71
2022/03/23 06:30:56;;;;;;;15.67;12.53;;;3.90;99.90;;;;;;5025324;28;20610;-71
2022/03/23 06:33:43;;;;;;;15.90;12.30;;;4.10;99.90;;;;;;5030956;28;20424;-71
2022/03/23 06:36:29;;;;;;;17.07;11.67;;;4.30;99.90;;;;;;5029994;28;20441;-71
2022/03/23 06:39:14;;;;;;;14.80;11.30;;;4.40;99.90;;;;;;5026413;28;20531;-71
2022/03/23 06:42:00;;;;;;;16.10;11.97;;;4.40;99.90;;;;;;5029536;28;20528;-72
2022/03/23 06:44:46;;;;;;;18.77;12.20;;;4.50;99.90;;;;;;5024549;28;20965;-71
2022/03/23 06:47:32;;;;;;;19.80;12.80;;;4.60;99.90;;;;;;5032055;28;20422;-71
2022/03/23 06:50:19;;;;;;;14.00;12.03;;;4.60;99.90;;;;;;5024455;28;20536;-72
2022/03/23 06:53:05;;;;;;;16.70;13.07;;;4.70;99.90;;;;;;5023540;28;20442;-71
2022/03/23 06:55:50;;;;;;;19.27;13.60;;;4.70;99.90;;;;;;5026997;28;20483;-71
2022/03/23 06:58:37;;;;;;;17.53;12.87;;;4.70;99.90;;;;;;5023242;28;21009;-71
2022/03/23 07:01:22;;;;;;;20.60;14.13;;;4.80;99.90;;;;;;5028183;28;20496;-71
2022/03/23 07:04:08;;;;;;;25.43;14.07;;;4.90;99.90;;;;;;5030544;28;20580;-72
2022/03/23 07:06:55;;;;;;;17.80;13.03;;;5.00;99.90;;;;;;5031961;28;20455;-71
2022/03/23 07:09:41;;;;;;;16.10;13.07;;;5.10;99.90;;;;;;5026905;28;20837;-71
2022/03/23 07:12:26;;;;;;;24.83;14.33;;;5.20;99.90;;;;;;5032023;28;20416;-71
2022/03/23 07:15:12;;;;;;;16.80;13.37;;;5.40;99.90;;;;;;5027308;28;20522;-71
2022/03/23 07:17:58;;;;;;;18.37;13.40;;;5.50;99.90;;;;;;5030416;28;20501;-72
2022/03/23 07:20:43;;;;;;;20.50;14.07;;;5.60;99.90;;;;;;5033769;28;20511;-72
2022/03/23 07:23:30;;;;;;;21.53;13.97;;;5.70;99.90;;;;;;5031411;28;20442;-71
2022/03/23 07:26:16;;;;;;;22.90;14.63;;;5.80;99.90;;;;;;5031411;28;20451;-71
2022/03/23 07:29:02;;;;;;;17.77;13.63;;;6.00;99.90;;;;;;5033319;28;20797;-71
2022/03/23 07:31:48;;;;;;;19.37;13.57;;;6.10;99.90;;;;;;5040308;28;20460;-72
2022/03/23 07:34:33;;;;;;;18.27;13.43;;;6.20;99.90;;;;;;5047976;28;20399;-71
2022/03/23 07:37:19;;;;;;;19.00;13.13;;;6.40;99.90;;;;;;5041242;28;20594;-71
2022/03/23 07:40:07;;;;;;;18.10;12.33;;;6.60;99.90;;;;;;5036096;28;20415;-71
2022/03/23 07:42:53;;;;;;;19.10;13.00;;;6.80;99.90;;;;;;5036534;28;20435;-71
2022/03/23 07:45:39;;;;;;;20.30;13.27;;;6.90;99.90;;;;;;5034247;28;20483;-72
2022/03/23 07:48:25;;;;;;;23.07;13.93;;;7.10;99.90;;;;;;5030640;28;20776;-72
2022/03/23 07:51:11;;;;;;;19.87;15.30;;;7.20;99.90;;;;;;5039384;28;20457;-71
2022/03/23 07:53:56;;;;;;;19.50;14.07;;;7.30;99.90;;;;;;5041159;28;20399;-71
2022/03/23 07:56:43;;;;;;;20.43;14.00;;;7.60;99.90;;;;;;5037089;28;20457;-71
2022/03/23 07:59:29;;;;;;;17.40;12.77;;;7.80;99.90;;;;;;5037124;28;20861;-72
2022/03/23 08:02:15;;;;;;;19.77;12.90;;;8.00;99.90;;;;;;5047270;28;20393;-71
2022/03/23 08:05:01;;;;;;;16.53;11.23;;;8.10;99.90;;;;;;5033745;28;20428;-71
2022/03/23 08:07:47;;;;;;;19.10;13.20;;;8.20;99.90;;;;;;5035420;28;21245;-71
2022/03/23 08:10:32;;;;;;;23.83;12.43;;;8.40;99.90;;;;;;5040535;28;20954;-72
2022/03/23 08:13:19;;;;;;;19.20;12.80;;;8.60;98.80;;;;;;5039678;28;20409;-71
2022/03/23 08:16:05;;;;;;;20.50;13.07;;;8.80;98.70;;;;;;5038501;28;20431;-72
2022/03/23 08:18:53;;;;;;;18.20;13.03;;;8.90;96.90;;;;;;5031962;28;20446;-72
2022/03/23 08:21:39;;;;;;;18.20;12.57;;;9.10;94.40;;;;;;5042492;28;20421;-72
2022/03/23 08:24:25;;;;;;;20.20;12.53;;;9.30;94.20;;;;;;5039183;28;20581;-73
2022/03/23 08:27:10;;;;;;;20.10;13.73;;;9.50;91.00;;;;;;5035375;28;21034;-72
2022/03/23 08:29:57;;;;;;;20.03;13.57;;;9.70;90.00;;;;;;5037260;28;20994;-72
2022/03/23 08:32:43;;;;;;;19.07;13.43;;;9.90;87.80;;;;;;5039618;28;20404;-72
2022/03/23 08:35:29;;;;;;;18.70;13.80;;;10.10;82.20;;;;;;5044964;28;20464;-72
2022/03/23 08:38:15;;;;;;;25.70;13.47;;;10.30;79.20;;;;;;5039070;28;20449;-72
2022/03/23 08:41:00;;;;;;;23.00;13.70;;;10.40;78.00;;;;;;5041444;28;20757;-72
2022/03/23 08:43:46;;;;;;;18.07;13.73;;;10.60;75.20;;;;;;5040772;28;20860;-72
2022/03/23 08:46:34;;;;;;;20.37;15.40;;;10.80;75.00;;;;;;5037454;28;20522;-72
2022/03/23 08:49:19;;;;;;;24.93;16.70;;;11.00;71.10;;;;;;5041709;28;20481;-72
2022/03/23 08:52:06;;;;;;;21.53;14.80;;;11.10;70.00;;;;;;5042404;28;20559;-72
2022/03/23 08:54:51;;;;;;;19.27;13.83;;;11.30;67.10;;;;;;5035366;28;20402;-70
2022/03/23 08:57:37;;;;;;;25.63;16.27;;;11.50;67.70;;;;;;5034615;28;20970;-71
2022/03/23 09:00:23;;;;;;;26.30;15.97;;;11.70;66.00;;;;;;5029242;28;20429;-71
2022/03/23 09:03:10;;;;;;;20.53;15.23;;;11.80;59.40;;;;;;5022082;28;20457;-71
2022/03/23 09:05:56;;;;;;;21.40;14.73;;;12.00;58.00;;;;;;5020125;28;20452;-70
2022/03/23 09:08:42;;;;;;;21.83;15.60;;;12.10;52.60;;;;;;5028602;28;20429;-71
2022/03/23 09:11:28;;;;;;;26.73;14.77;;;12.30;55.00;;;;;;5031697;28;20458;-70
2022/03/23 09:14:14;;;;;;;22.07;14.83;;;12.40;49.40;;;;;;5026362;28;20432;-71
2022/03/23 09:16:59;;;;;;;24.47;15.67;;;12.60;49.80;;;;;;5023042;28;21275;-70
2022/03/23 09:19:47;;;;;;;20.77;14.00;;;12.70;46.70;;;;;;5027604;28;20429;-70
2022/03/23 09:22:34;;;;;;;22.80;14.00;;;12.90;49.20;;;;;;5021820;28;20515;-70
2022/03/23 09:25:22;;;;;;;19.77;13.30;;;13.10;48.00;;;;;;5030443;28;20450;-71
2022/03/23 09:28:09;;;;;;;24.13;14.67;;;13.20;43.50;;;;;;5025693;28;20426;-70
2022/03/23 09:30:54;;;;;;;18.60;13.50;;;13.20;40.30;;;;;;5023304;28;20439;-70
2022/03/23 09:33:40;;;;;;;20.47;15.40;;;13.30;42.00;;;;;;5027274;28;20451;-70
2022/03/23 09:39:30;;;;;;;19.10;14.03;;;13.50;40.00;;;;;;5026789;28;20481;-71
2022/03/23 09:42:18;;;;;;;18.13;13.13;;;13.60;38.60;;;;;;5021717;28;20434;-71
2022/03/23 09:45:04;;;;;;;24.07;14.40;;;13.70;36.90;;;;;;5024661;28;20457;-70
2022/03/23 09:47:50;;;;;;;23.67;14.67;;;13.70;37.40;;;;;;5030896;28;20955;-71
2022/03/23 09:50:37;;;;;;;18.53;13.63;;;13.80;35.60;;;;;;5025623;28;20595;-71
2022/03/23 09:53:25;;;;;;;21.20;14.10;;;13.90;35.60;;;;;;5024525;28;20804;-70
2022/03/23 09:56:10;;;;;;;22.27;15.03;;;14.00;35.70;;;;;;5025117;28;20824;-72
2022/03/23 09:58:56;;;;;;;20.10;14.07;;;14.10;35.50;;;;;;5033973;28;20507;-71
2022/03/23 10:02:34;;;;;;;20.00;15.07;;;14.30;33.50;;;;;;5019364;28;20518;-72
2022/03/23 10:05:47;;;;;;;19.83;14.30;;;14.40;33.70;;;;;;5032347;28;21248;-72
2022/03/23 10:09:04;;;;;;;23.80;15.07;;;14.60;33.80;;;;;;5027418;28;20879;-72
2022/03/23 10:12:35;;;;;;;24.33;14.93;;;14.80;32.10;;;;;;5020508;28;20502;-71
2022/03/23 10:15:57;;;;;;;21.70;14.87;;;14.90;30.40;;;;;;5007250;28;20493;-72
2022/03/23 10:18:51;;;;;;;22.13;13.63;;;15.00;31.10;;;;;;5031450;28;20443;-72
2022/03/23 10:21:40;;;;;;;23.37;16.40;;;15.10;31.10;;;;;;5020278;28;20529;-72
2022/03/23 10:24:34;;;;;;;20.80;15.70;;;15.20;30.20;;;;;;5027977;28;20402;-72
2022/03/23 10:27:23;;;;;;;22.20;16.47;;;15.40;31.10;;;;;;5034152;28;20567;-72
2022/03/23 10:30:09;;;;;;;17.77;15.20;;;15.50;31.50;;;;;;5023801;28;20439;-71
2022/03/23 10:32:55;;;;;;;17.73;14.13;;;15.70;30.90;;;;;;5029401;28;20875;-72
2022/03/23 10:35:41;;;;;;;19.50;16.67;;;15.90;31.90;;;;;;5027067;28;20435;-72
2022/03/23 10:38:28;;;;;;;16.60;14.60;;;16.00;29.90;;;;;;5026924;28;21266;-72
2022/03/23 10:41:26;;;;;;;20.80;16.20;;;16.20;30.20;;;;;;5023030;28;20423;-71
2022/03/23 10:44:16;;;;;;;20.40;14.90;;;16.30;29.70;;;;;;5027640;28;20415;-72
2022/03/23 10:47:02;;;;;;;19.93;15.50;;;16.30;30.10;;;;;;5030404;28;20443;-71
2022/03/23 10:49:48;;;;;;;22.00;15.90;;;16.50;29.20;;;;;;5021131;28;20777;-72
2022/03/23 10:52:34;;;;;;;21.90;15.73;;;16.70;30.50;;;;;;5030935;28;20472;-71
2022/03/23 10:55:20;;;;;;;20.63;15.67;;;16.80;30.20;;;;;;5035138;28;20498;-71
2022/03/23 10:58:28;;;;;;;29.17;17.47;;;16.90;30.40;;;;;;5034831;28;20445;-72
2022/03/23 11:01:15;;;;;;;22.53;17.20;;;17.00;30.00;;;;;;5028034;28;20443;-72
2022/03/23 11:04:08;;;;;;;23.53;16.93;;;17.10;29.10;;;;;;5032196;28;20425;-72
2022/03/23 11:06:54;;;;;;;27.43;19.20;;;16.90;28.70;;;;;;5031802;28;20448;-70
2022/03/23 11:16:06;;;;;;;25.80;18.50;;;17.40;30.20;;;;;;5035391;28;20472;-71
2022/03/23 11:18:57;;;;;;;18.57;15.90;;;17.40;29.90;;;;;;5027594;28;20420;-73
2022/03/23 11:22:04;;;;;;;29.60;18.77;;;17.60;30.00;;;;;;5023110;28;20531;-71
2022/03/23 11:24:50;;;;;;;22.83;19.60;;;17.60;28.60;;;;;;5030840;28;20411;-72
2022/03/23 11:27:40;;;;;;;25.50;17.60;;;17.50;29.90;;;;;;5030657;28;20427;-71
2022/03/23 11:30:26;;;;;;;26.30;19.03;;;17.60;30.00;;;;;;5029071;28;20403;-72
2022/03/23 11:33:16;;;;;;;24.30;19.10;;;17.70;31.40;;;;;;5027705;28;20586;-71
2022/03/23 11:36:03;;;;;;;29.20;18.80;;;17.90;30.20;;;;;;5027404;28;20442;-71
2022/03/23 11:38:51;;;;;;;26.40;20.07;;;17.90;31.00;;;;;;5028960;28;20439;-71
2022/03/23 11:41:37;;;;;;;28.00;18.93;;;17.70;31.20;;;;;;5035910;28;20517;-71
2022/03/23 11:44:22;;;;;;;29.37;20.50;;;17.60;31.40;;;;;;5030967;28;20419;-71
2022/03/23 11:47:22;;;;;;;26.40;19.43;;;17.30;30.60;;;;;;5027827;28;20470;-71
2022/03/23 11:50:20;;;;;;;23.50;18.27;;;17.50;30.70;;;;;;5030057;23;20464;-84
2022/03/23 11:53:15;;;;;;;34.03;17.93;;;17.50;30.50;;;;;;5013004;28;21005;-83
2022/03/23 11:56:01;;;;;;;23.53;17.87;;;17.70;30.10;;;;;;5011933;28;20453;-84
2022/03/23 11:58:46;;;;;;;23.33;17.63;;;17.90;30.00;;;;;;5003458;28;20514;-85
2022/03/23 12:01:32;;;;;;;20.80;16.80;;;18.00;29.30;;;;;;5006687;28;21035;-84
2022/03/23 12:04:20;;;;;;;23.90;17.40;;;18.00;28.80;;;;;;5012627;28;21023;-84
2022/03/23 12:07:08;;;;;;;21.53;16.00;;;18.30;29.60;;;;;;5012795;28;20454;-84
2022/03/23 12:09:54;;;;;;;24.90;18.27;;;18.50;28.40;;;;;;5012646;28;20458;-85
2022/03/23 12:12:41;;;;;;;21.80;16.40;;;18.40;28.00;;;;;;5008426;28;20456;-83
2022/03/23 12:15:28;;;;;;;25.47;18.17;;;18.20;27.70;;;;;;5015870;28;20528;-85
2022/03/23 12:18:16;;;;;;;22.37;17.13;;;18.10;28.90;;;;;;5011021;28;20496;-84
2022/03/23 12:21:02;;;;;;;18.67;15.90;;;18.20;28.70;;;;;;5008797;28;20581;-85
2022/03/23 12:23:58;;;;;;;24.60;16.20;;;18.50;29.40;;;;;;5010166;28;20571;-85
2022/03/23 12:26:51;;;;;;;22.00;16.40;;;18.70;29.70;;;;;;5008477;28;20420;-84
2022/03/23 12:29:41;;;;;;;20.33;16.10;;;18.80;27.70;;;;;;5005640;28;20494;-83
2022/03/23 12:32:37;;;;;;;22.37;17.63;;;18.80;28.00;;;;;;5013677;28;21029;-84
2022/03/23 12:35:29;;;;;;;18.67;15.23;;;18.90;27.60;;;;;;5012461;28;20955;-84
2022/03/23 12:38:22;;;;;;;21.33;15.80;;;19.00;28.00;;;;;;5002789;28;20442;-86
2022/03/23 12:41:09;;;;;;;28.60;15.63;;;18.80;27.60;;;;;;5006509;28;20485;-85
2022/03/23 12:43:55;;;;;;;17.47;15.07;;;18.90;28.10;;;;;;5009509;28;20432;-86
2022/03/23 12:46:45;;;;;;;17.87;15.20;;;18.90;25.50;;;;;;5009416;28;20420;-86
2022/03/23 12:58:52;;;;;;;20.47;13.83;;;20.10;26.50;;;;;;5007306;28;20491;-86
2022/03/23 13:01:38;;;;;;;19.27;15.40;;;20.30;24.10;;;;;;5007966;28;20478;-86
2022/03/23 13:04:51;;;;;;;24.83;17.33;;;20.30;23.30;;;;;;5008536;28;20577;-86
2022/03/23 13:07:41;;;;;;;18.43;14.80;;;20.40;24.40;;;;;;5007613;28;20461;-86
2022/03/23 13:10:27;;;;;;;21.97;14.00;;;20.50;23.30;;;;;;5014912;28;20435;-86
2022/03/23 13:13:13;;;;;;;26.40;18.20;;;20.80;22.20;;;;;;5010587;28;20473;-86
2022/03/23 13:16:01;;;;;;;27.63;18.10;;;20.60;23.00;;;;;;5003550;28;20471;-86
2022/03/23 13:18:47;;;;;;;28.97;19.30;;;20.80;22.40;;;;;;5005600;28;20444;-87
2022/03/23 13:21:36;;;;;;;23.20;15.57;;;21.20;23.10;;;;;;5006378;28;20472;-87
2022/03/23 13:24:26;;;;;;;18.27;14.07;;;21.60;21.20;;;;;;5011794;28;20444;-87
2022/03/23 13:27:13;;;;;;;21.27;15.00;;;21.50;21.30;;;;;;5010629;28;20417;-87
2022/03/23 13:30:00;;;;;;;21.13;13.10;;;21.70;22.10;;;;;;5006195;28;20496;-86
2022/03/23 13:32:48;;;;;;;19.43;14.80;;;21.70;20.90;;;;;;5000379;28;20445;-87
2022/03/23 13:35:43;;;;;;;22.00;15.67;;;21.90;22.00;;;;;;5007853;28;20481;-87
2022/03/23 13:38:34;;;;;;;21.90;17.07;;;22.20;22.40;;;;;;5006554;28;20453;-86
2022/03/23 13:47:33;;;;;;;22.23;15.73;;;22.00;20.00;;;;;;4998246;28;20485;-87
2022/03/23 13:50:20;;;;;;;22.60;17.83;;;21.60;20.80;;;;;;5014191;28;20487;-87
2022/03/23 13:53:08;;;;;;;21.33;16.63;;;21.80;22.20;;;;;;5017663;28;20869;-87
2022/03/23 13:55:57;;;;;;;23.53;17.33;;;22.20;22.50;;;;;;5006927;28;20569;-87
2022/03/23 13:58:44;;;;;;;19.60;15.57;;;22.30;20.50;;;;;;5005589;28;20445;-86
2022/03/23 14:01:30;;;;;;;21.23;16.70;;;22.30;20.70;;;;;;5004474;28;20841;-87
2022/03/23 14:04:18;;;;;;;19.20;16.23;;;22.50;21.30;;;;;;5008509;28;20437;-86
2022/03/23 14:07:06;;;;;;;20.37;16.77;;;22.80;21.50;;;;;;5010532;28;20453;-86
2022/03/23 14:09:53;;;;;;;19.97;16.97;;;23.10;20.20;;;;;;5010264;28;20856;-86
2022/03/23 14:12:39;;;;;;;21.53;16.77;;;23.30;20.40;;;;;;5009381;28;20430;-86
2022/03/23 14:15:25;;;;;;;20.20;17.60;;;23.20;18.90;;;;;;5011043;28;20952;-86
2022/03/23 14:18:11;;;;;;;22.23;17.70;;;22.90;18.90;;;;;;5007907;28;20457;-86
2022/03/23 14:20:59;;;;;;;21.03;16.53;;;22.90;19.70;;;;;;5008430;28;20614;-86
2022/03/23 14:23:46;;;;;;;22.33;16.40;;;23.00;20.90;;;;;;5010519;28;20575;-86
2022/03/23 14:26:33;;;;;;;26.37;17.33;;;23.20;20.10;;;;;;5007704;28;20450;-86
2022/03/23 14:29:21;;;;;;;21.87;17.07;;;22.60;19.20;;;;;;5008847;28;20528;-86
2022/03/23 14:32:10;;;;;;;23.60;17.23;;;22.30;19.60;;;;;;5016934;28;20459;-86
2022/03/23 14:34:56;;;;;;;22.80;16.03;;;22.20;20.20;;;;;;5012713;28;20981;-87
2022/03/23 14:37:44;;;;;;;17.03;15.23;;;22.30;19.80;;;;;;5008017;28;20645;-87
2022/03/23 14:40:36;;;;;;;22.13;15.97;;;22.40;20.50;;;;;;5022496;23;21008;-76
2022/03/23 14:43:35;;;;;;;30.17;15.97;;;22.70;20.30;;;;;;5031018;28;20464;-75
2022/03/23 14:46:23;;;;;;;27.00;16.03;;;22.90;19.60;;;;;;5029641;28;20805;-75
2022/03/23 14:49:10;;;;;;;23.20;15.53;;;23.10;20.00;;;;;;5025393;28;20792;-76
2022/03/23 14:51:56;;;;;;;21.50;17.50;;;23.10;19.60;;;;;;5028676;28;20419;-76